Time;durP1;ratioP1;P1;durP2;ratioP2;P2;SDS_P1;SDS_P2;PMS_P1;PMS_P2;Temp;Humidity;BMP_temperature;BMP_pressure;BME280_temperature;BME280_humidity;BME280_pressure;Samples;Min_cycle;Max_cycle;Signal;HPM_P1;HPM_P2
2023/06/05 00:02:00;;;;;;;2.07;1.50;;;13.30;99.90;;;;;;5050829;28;20835;-70
2023/06/05 00:04:28;;;;;;;2.40;1.80;;;13.30;99.90;;;;;;5051352;28;20491;-69
2023/06/05 00:06:57;;;;;;;1.93;1.70;;;13.30;99.90;;;;;;5042277;28;20445;-69
2023/06/05 00:09:24;;;;;;;2.30;2.00;;;13.20;99.90;;;;;;5030999;28;20483;-69
2023/06/05 00:11:50;;;;;;;2.47;1.97;;;13.20;99.90;;;;;;5030974;28;20464;-70
2023/06/05 00:14:17;;;;;;;3.60;1.70;;;13.20;99.90;;;;;;5031464;28;20464;-70
2023/06/05 00:16:44;;;;;;;2.40;2.20;;;13.10;99.90;;;;;;5031139;28;20463;-70
2023/06/05 00:19:12;;;;;;;2.20;2.00;;;13.10;99.90;;;;;;5040887;28;20479;-70
2023/06/05 00:21:39;;;;;;;2.00;1.73;;;13.10;99.90;;;;;;5051036;28;20476;-70
2023/06/05 00:24:06;;;;;;;2.33;1.70;;;13.00;99.90;;;;;;5041072;28;20460;-70
2023/06/05 00:26:33;;;;;;;2.33;2.13;;;13.00;99.90;;;;;;5031151;28;20464;-70
2023/06/05 00:28:59;;;;;;;2.43;1.70;;;13.00;99.90;;;;;;5030166;28;20491;-70
2023/06/05 00:31:27;;;;;;;3.07;2.00;;;13.00;99.90;;;;;;5030816;28;20467;-70
2023/06/05 00:33:53;;;;;;;2.70;2.03;;;13.00;99.90;;;;;;5030677;28;20542;-70
2023/06/05 00:36:22;;;;;;;4.50;2.47;;;13.00;99.90;;;;;;5030631;28;20467;-69
2023/06/05 00:38:49;;;;;;;2.10;1.90;;;12.90;99.90;;;;;;5030394;28;20482;-69
2023/06/05 00:41:16;;;;;;;6.13;2.13;;;12.90;99.90;;;;;;5030418;28;20461;-69
2023/06/05 00:43:42;;;;;;;2.47;2.00;;;12.90;99.90;;;;;;5030652;28;20482;-70
2023/06/05 00:46:11;;;;;;;2.73;1.90;;;12.80;99.90;;;;;;5030302;28;20544;-69
2023/06/05 00:48:38;;;;;;;3.27;2.30;;;12.80;99.90;;;;;;5030586;28;20491;-69
2023/06/05 00:51:04;;;;;;;2.73;1.70;;;12.80;99.90;;;;;;5029665;28;20563;-69
2023/06/05 00:53:35;;;;;;;2.73;1.90;;;12.80;99.90;;;;;;5030330;28;20456;-69
2023/06/05 00:56:03;;;;;;;2.67;2.10;;;12.70;99.90;;;;;;5029994;28;20464;-70
2023/06/05 00:58:31;;;;;;;4.90;2.63;;;12.70;99.90;;;;;;5030422;28;20484;-69
2023/06/05 01:00:59;;;;;;;2.80;1.87;;;12.70;99.90;;;;;;5029513;28;20490;-71
2023/06/05 01:03:29;;;;;;;2.23;2.03;;;12.60;99.90;;;;;;5030424;28;20471;-70
2023/06/05 01:06:02;;;;;;;2.13;1.93;;;12.60;99.90;;;;;;5030619;28;20467;-69
2023/06/05 01:08:30;;;;;;;2.20;1.63;;;12.60;99.90;;;;;;5030383;28;20605;-70
2023/06/05 01:11:02;;;;;;;3.07;2.43;;;12.60;99.90;;;;;;5029394;28;20853;-70
2023/06/05 01:13:35;;;;;;;4.60;2.00;;;12.60;99.90;;;;;;5029511;28;20468;-69
2023/06/05 01:16:04;;;;;;;2.50;2.00;;;12.60;99.90;;;;;;5029732;28;20956;-70
2023/06/05 01:18:31;;;;;;;2.10;1.90;;;12.50;99.90;;;;;;5029936;28;20570;-69
2023/06/05 01:21:02;;;;;;;2.17;1.60;;;12.50;99.90;;;;;;5029383;28;20842;-70
2023/06/05 01:23:30;;;;;;;3.37;1.60;;;12.40;99.90;;;;;;5029430;28;20488;-69
2023/06/05 01:26:00;;;;;;;3.50;1.90;;;12.50;99.90;;;;;;5030063;28;20464;-69
2023/06/05 01:28:32;;;;;;;2.27;1.83;;;12.40;99.90;;;;;;5029973;28;20843;-69
2023/06/05 01:31:04;;;;;;;3.50;1.90;;;12.40;99.90;;;;;;5045688;28;20479;-70
2023/06/05 01:33:36;;;;;;;2.13;1.63;;;12.30;99.90;;;;;;5037443;28;20465;-69
2023/06/05 01:36:04;;;;;;;2.00;1.83;;;12.30;99.90;;;;;;5029500;28;20468;-69
2023/06/05 01:38:34;;;;;;;2.07;1.67;;;12.30;99.90;;;;;;5029890;28;20996;-69
2023/06/05 01:41:03;;;;;;;2.63;2.10;;;12.20;99.90;;;;;;5028944;28;20532;-69
2023/06/05 01:43:31;;;;;;;3.20;1.97;;;12.20;99.90;;;;;;5029925;28;20475;-70
2023/06/05 01:46:00;;;;;;;3.70;1.60;;;12.20;99.90;;;;;;5029620;28;20460;-70
2023/06/05 01:48:29;;;;;;;3.07;2.30;;;12.20;99.90;;;;;;5049649;28;20564;-70
2023/06/05 01:50:56;;;;;;;2.23;2.00;;;12.10;99.90;;;;;;5033395;28;20480;-70
2023/06/05 01:53:23;;;;;;;2.30;1.77;;;12.20;99.90;;;;;;5029486;28;20487;-70
2023/06/05 01:55:53;;;;;;;3.13;2.40;;;12.20;99.90;;;;;;5029745;28;20467;-70
2023/06/05 01:58:21;;;;;;;3.23;2.40;;;12.10;99.90;;;;;;5029264;28;20481;-70
2023/06/05 02:00:48;;;;;;;1.97;1.77;;;12.10;99.90;;;;;;5029427;28;20558;-70
2023/06/05 02:03:15;;;;;;;2.47;1.93;;;12.10;99.90;;;;;;5029261;28;20956;-70
2023/06/05 02:05:42;;;;;;;2.87;2.10;;;12.10;99.90;;;;;;5032035;28;20550;-70
2023/06/05 02:08:13;;;;;;;2.33;1.70;;;12.00;99.90;;;;;;5033193;28;20479;-70
2023/06/05 02:10:42;;;;;;;2.53;2.13;;;12.00;99.90;;;;;;5032835;28;20476;-70
2023/06/05 02:13:10;;;;;;;4.37;2.63;;;12.00;99.90;;;;;;5031914;28;20498;-70
2023/06/05 02:15:37;;;;;;;3.57;1.77;;;12.00;99.90;;;;;;5032215;28;20535;-70
2023/06/05 02:18:07;;;;;;;2.57;2.27;;;11.90;99.90;;;;;;5031864;28;20484;-69
2023/06/05 02:20:35;;;;;;;3.30;1.97;;;11.90;99.90;;;;;;5032157;28;21015;-69
2023/06/05 02:23:02;;;;;;;3.00;1.80;;;11.80;99.90;;;;;;5031843;28;20471;-70
2023/06/05 02:25:29;;;;;;;1.80;1.63;;;11.80;99.90;;;;;;5032620;28;20492;-70
2023/06/05 02:27:56;;;;;;;2.30;2.10;;;11.80;99.90;;;;;;5032665;28;20476;-70
2023/06/05 02:30:24;;;;;;;2.20;2.00;;;11.80;99.90;;;;;;5032027;28;20662;-69
2023/06/05 02:32:56;;;;;;;3.93;2.43;;;11.80;99.90;;;;;;5033894;28;20467;-70
2023/06/05 02:35:23;;;;;;;3.97;1.80;;;11.80;99.90;;;;;;5051857;28;20525;-70
2023/06/05 02:37:50;;;;;;;2.90;2.30;;;11.70;99.90;;;;;;5052498;28;20483;-70
2023/06/05 02:40:17;;;;;;;2.30;2.10;;;11.70;99.90;;;;;;5051445;28;20466;-70
2023/06/05 02:42:43;;;;;;;2.07;1.73;;;11.70;99.90;;;;;;5052266;28;20463;-69
2023/06/05 02:45:10;;;;;;;1.73;1.63;;;11.60;99.90;;;;;;5051679;28;20463;-69
2023/06/05 02:47:38;;;;;;;2.80;1.90;;;11.60;99.90;;;;;;5052247;28;20234;-70
2023/06/05 02:50:07;;;;;;;2.40;1.93;;;11.60;99.90;;;;;;5051120;28;20487;-69
2023/06/05 02:52:35;;;;;;;2.07;1.77;;;11.60;99.90;;;;;;5051797;28;20467;-69
2023/06/05 02:55:02;;;;;;;2.63;1.70;;;11.50;99.90;;;;;;5051762;28;20996;-69
2023/06/05 02:57:29;;;;;;;2.43;1.90;;;11.60;99.90;;;;;;5051589;28;20478;-69
2023/06/05 02:59:55;;;;;;;2.00;1.57;;;11.50;99.90;;;;;;5051532;28;20463;-70
2023/06/05 03:02:23;;;;;;;2.20;2.00;;;11.50;99.90;;;;;;5051175;28;20467;-70
2023/06/05 03:04:53;;;;;;;2.73;2.03;;;11.50;99.90;;;;;;5051830;28;20494;-70
2023/06/05 03:07:20;;;;;;;2.38;2.05;;;11.50;99.90;;;;;;5051372;28;20541;-70
2023/06/05 03:09:46;;;;;;;2.73;1.90;;;11.40;99.90;;;;;;5051257;28;20692;-68
2023/06/05 03:12:13;;;;;;;2.37;2.17;;;11.40;99.90;;;;;;5016115;28;1018307;-69
2023/06/05 03:14:39;;;;;;;2.40;2.20;;;11.40;99.90;;;;;;5052662;28;21095;-69
2023/06/05 03:17:07;;;;;;;3.50;2.20;;;11.40;99.90;;;;;;5052017;28;20822;-70
2023/06/05 03:19:33;;;;;;;2.80;2.20;;;11.40;99.90;;;;;;5052276;28;20463;-70
2023/06/05 03:22:01;;;;;;;3.53;2.13;;;11.30;99.90;;;;;;5052310;28;20994;-69
2023/06/05 03:24:28;;;;;;;2.72;2.20;;;11.30;99.90;;;;;;5052312;28;21165;-70
2023/06/05 03:26:55;;;;;;;2.30;2.10;;;11.30;99.90;;;;;;5052194;28;20629;-70
2023/06/05 03:29:21;;;;;;;1.80;1.70;;;11.30;99.90;;;;;;5051653;28;20463;-69
2023/06/05 03:31:48;;;;;;;1.80;1.70;;;11.20;99.90;;;;;;5050633;28;20221;-70
2023/06/05 03:34:16;;;;;;;2.90;2.60;;;11.20;99.90;;;;;;5048742;28;20495;-71
2023/06/05 03:36:43;;;;;;;2.77;2.23;;;11.20;99.90;;;;;;5049330;28;20463;-70
2023/06/05 03:39:11;;;;;;;2.23;1.90;;;11.20;99.90;;;;;;5049500;28;20487;-69
2023/06/05 03:41:38;;;;;;;1.90;1.73;;;11.20;99.90;;;;;;5049298;28;20464;-68
2023/06/05 03:44:06;;;;;;;2.58;2.00;;;11.20;99.90;;;;;;5049280;28;20930;-69
2023/06/05 03:46:33;;;;;;;3.87;2.63;;;11.10;99.90;;;;;;5051827;28;20205;-69
2023/06/05 03:49:05;;;;;;;4.60;2.30;;;11.10;99.90;;;;;;5051736;28;20481;-69
2023/06/05 03:51:32;;;;;;;2.63;1.80;;;11.20;99.90;;;;;;5052082;28;20479;-68
2023/06/05 03:54:00;;;;;;;2.60;2.33;;;11.20;99.90;;;;;;5051976;28;20866;-69
2023/06/05 03:56:33;;;;;;;2.28;2.08;;;11.20;99.90;;;;;;5019718;28;20960;-68
2023/06/05 03:59:08;;;;;;;2.30;2.03;;;11.10;99.90;;;;;;5014261;28;20309;-68
2023/06/05 04:01:36;;;;;;;2.00;1.80;;;11.10;99.90;;;;;;5020065;28;20460;-69
2023/06/05 04:04:04;;;;;;;3.78;2.30;;;11.10;99.90;;;;;;5017256;28;20464;-69
2023/06/05 04:06:32;;;;;;;2.05;1.85;;;11.10;99.90;;;;;;5012787;28;20561;-69
2023/06/05 04:09:02;;;;;;;2.22;2.03;;;11.20;99.90;;;;;;5021087;28;20651;-69
2023/06/05 04:11:31;;;;;;;2.30;1.83;;;11.20;99.90;;;;;;5028123;28;20271;-68
2023/06/05 04:13:58;;;;;;;3.10;2.10;;;11.20;99.90;;;;;;5043910;28;20804;-69
2023/06/05 04:16:25;;;;;;;2.80;2.37;;;11.30;99.90;;;;;;5046768;28;20451;-68
2023/06/05 04:18:51;;;;;;;5.03;2.67;;;11.30;99.90;;;;;;5028828;28;20484;-69
2023/06/05 04:21:18;;;;;;;3.33;2.40;;;11.30;99.90;;;;;;5044817;28;20946;-69
2023/06/05 04:23:45;;;;;;;3.60;3.30;;;11.40;99.90;;;;;;5034465;28;20455;-68
2023/06/05 04:26:13;;;;;;;2.90;2.20;;;11.40;99.90;;;;;;5050777;28;20554;-69
2023/06/05 04:28:42;;;;;;;4.38;2.83;;;11.50;99.90;;;;;;5053061;28;20519;-68
2023/06/05 04:31:08;;;;;;;2.97;2.40;;;11.50;99.90;;;;;;5050636;28;20711;-68
2023/06/05 04:33:35;;;;;;;4.03;2.50;;;11.60;99.90;;;;;;5050676;28;20193;-68
2023/06/05 04:36:04;;;;;;;2.77;2.03;;;11.60;99.90;;;;;;5050977;28;20460;-68
2023/06/05 04:38:31;;;;;;;2.20;2.00;;;11.60;99.90;;;;;;5050883;28;20491;-68
2023/06/05 04:40:58;;;;;;;1.77;1.60;;;11.70;99.90;;;;;;5050426;28;20460;-68
2023/06/05 04:43:24;;;;;;;3.53;2.30;;;11.80;99.90;;;;;;5050904;28;20925;-68
2023/06/05 04:45:53;;;;;;;2.57;2.27;;;11.80;99.90;;;;;;5045501;28;20843;-69
2023/06/05 04:48:20;;;;;;;3.20;2.50;;;11.90;99.90;;;;;;5030634;28;20519;-68
2023/06/05 04:50:47;;;;;;;2.90;2.60;;;11.90;99.90;;;;;;5030900;28;20484;-68
2023/06/05 04:53:13;;;;;;;2.73;2.27;;;12.00;99.90;;;;;;5030878;28;20464;-68
2023/06/05 04:55:40;;;;;;;2.23;2.00;;;12.00;99.90;;;;;;5030656;28;20464;-68
2023/06/05 04:58:07;;;;;;;2.30;2.10;;;12.00;99.90;;;;;;5030957;28;20480;-69
2023/06/05 05:00:33;;;;;;;2.50;2.13;;;12.10;99.90;;;;;;5030801;28;20463;-69
2023/06/05 05:03:02;;;;;;;2.37;1.80;;;12.20;99.90;;;;;;5030920;28;20460;-69
2023/06/05 05:05:29;;;;;;;3.47;2.40;;;12.30;99.90;;;;;;5030425;28;20466;-68
2023/06/05 05:07:56;;;;;;;2.77;2.33;;;12.30;99.90;;;;;;5032261;28;20484;-69
2023/06/05 05:10:23;;;;;;;2.97;2.13;;;12.40;99.90;;;;;;5029730;28;20860;-69
2023/06/05 05:12:49;;;;;;;3.40;2.63;;;12.50;99.90;;;;;;5030376;28;20460;-69
2023/06/05 05:15:17;;;;;;;4.07;2.53;;;12.60;99.90;;;;;;5032603;28;20465;-68
2023/06/05 05:17:46;;;;;;;2.57;2.37;;;12.70;99.90;;;;;;5047277;28;20993;-67
2023/06/05 05:20:14;;;;;;;2.03;1.83;;;12.80;99.90;;;;;;5064109;22;21058;-66
2023/06/05 05:22:41;;;;;;;2.60;2.37;;;12.90;99.90;;;;;;5034237;28;20943;-67
2023/06/05 05:25:08;;;;;;;2.20;1.87;;;12.90;99.90;;;;;;5049775;28;20969;-67
2023/06/05 05:27:35;;;;;;;3.20;2.47;;;13.10;99.90;;;;;;5049953;28;20482;-67
2023/06/05 05:30:02;;;;;;;5.50;2.10;;;13.20;99.90;;;;;;5049890;28;20463;-67
2023/06/05 05:32:29;;;;;;;3.60;2.20;;;13.30;99.90;;;;;;5049954;28;20479;-67
2023/06/05 05:34:55;;;;;;;3.43;2.40;;;13.40;99.90;;;;;;5050169;28;20678;-67
2023/06/05 05:37:25;;;;;;;2.70;2.40;;;13.50;99.90;;;;;;5049673;28;20490;-67
2023/06/05 05:39:52;;;;;;;2.43;2.03;;;13.60;99.90;;;;;;5048959;28;20460;-67
2023/06/05 05:42:19;;;;;;;2.20;2.00;;;13.70;99.90;;;;;;5049479;28;20463;-67
2023/06/05 05:44:46;;;;;;;4.40;2.33;;;13.90;99.90;;;;;;5050119;28;20466;-67
2023/06/05 05:47:13;;;;;;;2.83;2.53;;;14.00;99.90;;;;;;5049852;28;20460;-67
2023/06/05 05:49:39;;;;;;;4.50;2.60;;;14.20;99.90;;;;;;5021848;28;20471;-67
2023/06/05 05:52:06;;;;;;;2.60;2.10;;;14.30;99.90;;;;;;5044972;28;20483;-67
2023/06/05 05:54:34;;;;;;;2.50;2.13;;;14.40;99.90;;;;;;5039272;28;20468;-67
2023/06/05 05:57:01;;;;;;;2.30;2.10;;;14.50;99.90;;;;;;5030072;28;20464;-67
2023/06/05 05:59:28;;;;;;;2.40;2.20;;;14.50;99.90;;;;;;5029716;28;21043;-67
2023/06/05 06:01:58;;;;;;;2.50;2.30;;;14.60;99.90;;;;;;5029041;28;20471;-67
2023/06/05 06:04:26;;;;;;;2.53;2.33;;;14.80;99.90;;;;;;5047575;28;20471;-67
2023/06/05 06:06:56;;;;;;;3.80;1.90;;;14.80;99.90;;;;;;5049601;28;20470;-67
2023/06/05 06:09:22;;;;;;;3.40;2.83;;;14.90;99.90;;;;;;5049130;28;20900;-67
2023/06/05 06:11:51;;;;;;;2.20;2.00;;;15.00;99.90;;;;;;5049244;28;20483;-68
2023/06/05 06:14:18;;;;;;;2.43;2.10;;;15.10;99.90;;;;;;5049641;28;20478;-67
2023/06/05 06:16:45;;;;;;;4.07;2.50;;;15.20;99.90;;;;;;5037949;28;20460;-67
2023/06/05 06:19:14;;;;;;;2.30;2.07;;;15.40;99.90;;;;;;5037309;28;21072;-67
2023/06/05 06:21:40;;;;;;;2.73;2.27;;;15.40;99.90;;;;;;5049200;28;20836;-67
2023/06/05 06:24:07;;;;;;;4.03;2.07;;;15.50;99.90;;;;;;5042012;28;20468;-67
2023/06/05 06:26:34;;;;;;;2.90;2.60;;;15.60;99.90;;;;;;5039238;28;20466;-67
2023/06/05 06:29:02;;;;;;;2.00;1.80;;;15.70;99.90;;;;;;5033354;28;20488;-67
2023/06/05 06:31:29;;;;;;;2.90;2.20;;;15.70;99.90;;;;;;5038495;28;20700;-67
2023/06/05 06:33:55;;;;;;;3.20;2.20;;;15.80;99.90;;;;;;5049271;28;20828;-67
2023/06/05 06:36:22;;;;;;;2.10;1.90;;;15.90;99.90;;;;;;5040446;28;20460;-67
2023/06/05 06:38:49;;;;;;;2.30;2.03;;;16.00;99.90;;;;;;5029128;28;20516;-67
2023/06/05 06:41:16;;;;;;;2.73;2.07;;;16.10;99.90;;;;;;5029238;28;20476;-67
2023/06/05 06:43:43;;;;;;;3.03;2.40;;;16.30;99.90;;;;;;5033030;28;20894;-67
2023/06/05 06:46:11;;;;;;;4.20;2.80;;;16.30;99.90;;;;;;5049698;28;20841;-67
2023/06/05 06:48:37;;;;;;;2.37;2.17;;;16.40;99.90;;;;;;5049201;28;20497;-67
2023/06/05 06:51:04;;;;;;;3.20;2.90;;;16.50;99.90;;;;;;5049869;28;21049;-67
2023/06/05 06:53:31;;;;;;;3.40;2.53;;;16.60;99.90;;;;;;5052683;28;20459;-68
2023/06/05 06:55:58;;;;;;;2.40;2.20;;;16.70;99.90;;;;;;5039502;28;20979;-67
2023/06/05 06:58:25;;;;;;;4.20;2.20;;;16.80;99.90;;;;;;5050037;28;20538;-67
2023/06/05 07:00:51;;;;;;;5.47;2.70;;;16.90;99.90;;;;;;5049994;28;20517;-67
2023/06/05 07:03:19;;;;;;;4.23;2.77;;;17.00;99.90;;;;;;5041249;28;20464;-67
2023/06/05 07:05:46;;;;;;;2.87;2.40;;;17.00;99.90;;;;;;5032455;28;20464;-68
2023/06/05 07:08:13;;;;;;;2.53;2.10;;;17.10;99.90;;;;;;5026732;28;20491;-68
2023/06/05 07:10:42;;;;;;;4.30;3.37;;;17.20;99.90;;;;;;5030421;28;20460;-68
2023/06/05 07:13:09;;;;;;;3.97;2.10;;;17.30;99.90;;;;;;5031001;28;20476;-68
2023/06/05 07:15:36;;;;;;;3.60;2.37;;;17.40;99.80;;;;;;5029085;28;20473;-68
2023/06/05 07:18:03;;;;;;;3.87;2.43;;;17.60;99.90;;;;;;5029894;28;20512;-68
2023/06/05 07:20:32;;;;;;;3.70;2.33;;;17.70;99.80;;;;;;5021981;28;20479;-68
2023/06/05 07:23:01;;;;;;;3.00;2.50;;;17.70;98.30;;;;;;5030598;28;20875;-68
2023/06/05 07:25:28;;;;;;;4.50;2.80;;;17.80;98.90;;;;;;5030338;28;20468;-68
2023/06/05 07:27:55;;;;;;;3.07;2.77;;;17.90;99.40;;;;;;5027064;28;20523;-67
2023/06/05 07:30:22;;;;;;;3.57;2.50;;;18.10;99.70;;;;;;5029823;28;20460;-67
2023/06/05 07:32:49;;;;;;;6.57;3.17;;;18.20;99.70;;;;;;5048183;28;20914;-68
2023/06/05 07:35:16;;;;;;;2.90;2.60;;;18.30;99.20;;;;;;5047963;28;20455;-67
2023/06/05 07:37:45;;;;;;;4.17;2.73;;;18.40;99.30;;;;;;5051085;28;20939;-67
2023/06/05 07:40:13;;;;;;;3.10;2.80;;;18.50;99.20;;;;;;5051690;28;20565;-68
2023/06/05 07:42:39;;;;;;;2.80;2.50;;;18.60;99.90;;;;;;5048696;28;20939;-67
2023/06/05 07:45:07;;;;;;;4.50;2.80;;;18.70;98.10;;;;;;5031781;28;20468;-67
2023/06/05 07:47:34;;;;;;;3.93;3.27;;;18.80;98.10;;;;;;5041473;28;20540;-68
2023/06/05 07:50:03;;;;;;;3.47;3.07;;;18.90;98.50;;;;;;5051590;28;20470;-68
2023/06/05 07:52:31;;;;;;;3.00;2.70;;;19.00;98.90;;;;;;5051006;28;20537;-67
2023/06/05 07:54:59;;;;;;;3.93;3.20;;;19.10;99.00;;;;;;5038149;28;20885;-67
2023/06/05 07:57:27;;;;;;;3.10;2.80;;;19.20;99.00;;;;;;5031352;28;20495;-68
2023/06/05 07:59:54;;;;;;;3.53;2.97;;;19.40;99.10;;;;;;5031289;28;20460;-68
2023/06/05 08:02:21;;;;;;;4.40;3.40;;;19.40;99.90;;;;;;5038343;28;20455;-68
2023/06/05 08:04:48;;;;;;;4.53;3.07;;;19.60;99.40;;;;;;5030884;28;20547;-68
2023/06/05 08:07:14;;;;;;;4.53;3.57;;;19.70;99.10;;;;;;5030796;28;20480;-68
2023/06/05 08:09:41;;;;;;;4.47;3.70;;;19.80;99.60;;;;;;5030533;28;20500;-68
2023/06/05 08:12:09;;;;;;;3.20;2.90;;;19.90;99.90;;;;;;5030781;28;20483;-68
2023/06/05 08:14:37;;;;;;;3.93;3.53;;;20.00;98.90;;;;;;5030815;28;20973;-68
2023/06/05 08:17:04;;;;;;;4.27;3.60;;;20.00;99.20;;;;;;5030940;28;20461;-68
2023/06/05 08:19:31;;;;;;;3.30;3.03;;;20.00;99.00;;;;;;5030114;28;20467;-68
2023/06/05 08:21:58;;;;;;;6.33;3.80;;;20.10;99.90;;;;;;5030610;28;20472;-68
2023/06/05 08:24:26;;;;;;;3.90;3.60;;;20.10;98.70;;;;;;5047212;28;20691;-68
2023/06/05 08:26:53;;;;;;;4.00;3.40;;;20.20;99.90;;;;;;5050567;28;20823;-68
2023/06/05 08:29:21;;;;;;;3.50;3.13;;;20.20;99.90;;;;;;5050171;28;20457;-68
2023/06/05 08:31:48;;;;;;;4.60;3.47;;;20.40;99.90;;;;;;5038222;28;20476;-68
2023/06/05 08:34:14;;;;;;;5.27;4.27;;;20.60;99.90;;;;;;5030724;28;20463;-68
2023/06/05 08:36:42;;;;;;;3.93;3.30;;;20.70;99.90;;;;;;5030118;28;20470;-70
2023/06/05 08:39:09;;;;;;;3.50;3.20;;;20.90;99.90;;;;;;5036784;28;21083;-68
2023/06/05 08:41:37;;;;;;;4.47;3.90;;;21.00;99.90;;;;;;5048027;28;20463;-68
2023/06/05 08:44:04;;;;;;;4.27;3.93;;;21.10;99.90;;;;;;5029587;28;20520;-68
2023/06/05 08:46:37;;;;;;;3.77;3.37;;;21.30;99.90;;;;;;5030276;28;20808;-68
2023/06/05 08:49:11;;;;;;;6.23;4.30;;;21.30;99.90;;;;;;5029685;28;20525;-68
2023/06/05 08:51:39;;;;;;;4.90;4.33;;;21.40;99.90;;;;;;5029792;28;20580;-68
2023/06/05 08:54:12;;;;;;;4.50;3.80;;;21.60;99.90;;;;;;5049842;28;20552;-68
2023/06/05 08:56:39;;;;;;;4.33;3.93;;;21.80;99.90;;;;;;5049421;28;20463;-68
2023/06/05 08:59:07;;;;;;;4.13;3.73;;;21.90;99.90;;;;;;5046195;28;20481;-69
2023/06/05 09:01:35;;;;;;;4.50;3.80;;;22.00;99.90;;;;;;5029649;28;20459;-68
2023/06/05 09:04:02;;;;;;;4.10;3.70;;;22.00;99.90;;;;;;5029192;28;20514;-68
2023/06/05 09:06:29;;;;;;;5.93;3.77;;;22.10;99.90;;;;;;5029413;28;20493;-68
2023/06/05 09:08:56;;;;;;;4.00;3.60;;;22.10;99.90;;;;;;5029149;28;21103;-68
2023/06/05 09:11:25;;;;;;;3.80;3.50;;;22.20;99.30;;;;;;5043792;28;20463;-68
2023/06/05 09:13:52;;;;;;;5.97;3.63;;;22.20;99.10;;;;;;5048596;28;20465;-68
2023/06/05 09:16:21;;;;;;;4.53;4.13;;;22.30;99.90;;;;;;5029808;28;20461;-68
2023/06/05 09:18:58;;;;;;;4.00;3.60;;;22.30;99.90;;;;;;5025610;28;20546;-68
2023/06/05 09:21:30;;;;;;;4.00;3.60;;;22.40;99.90;;;;;;5027323;28;20537;-69
2023/06/05 09:24:17;;;;;;;4.00;3.70;;;22.30;99.90;;;;;;5029866;28;20523;-69
2023/06/05 09:26:47;;;;;;;3.70;3.40;;;22.40;99.90;;;;;;5029754;28;20464;-68
2023/06/05 09:29:20;;;;;;;4.00;3.60;;;22.50;99.90;;;;;;5028913;28;20908;-69
2023/06/05 09:31:46;;;;;;;4.70;3.80;;;22.70;99.90;;;;;;5029043;28;20484;-69
2023/06/05 09:34:21;;;;;;;5.27;4.03;;;23.00;99.90;;;;;;5029500;28;20463;-69
2023/06/05 09:36:48;;;;;;;3.67;3.37;;;23.10;99.90;;;;;;5029325;28;20554;-69
2023/06/05 09:39:15;;;;;;;3.60;3.30;;;23.20;99.90;;;;;;5029078;28;20488;-69
2023/06/05 09:41:46;;;;;;;4.33;3.93;;;23.30;99.30;;;;;;5029380;28;20492;-69
2023/06/05 09:44:13;;;;;;;5.57;3.73;;;23.40;99.90;;;;;;5028898;28;20463;-69
2023/06/05 09:46:53;;;;;;;3.83;3.53;;;23.60;99.60;;;;;;5029680;28;20489;-69
2023/06/05 09:49:22;;;;;;;6.20;3.63;;;23.70;99.70;;;;;;5044154;28;20593;-69
2023/06/05 09:51:49;;;;;;;5.00;3.87;;;23.80;97.50;;;;;;5040916;28;20475;-69
2023/06/05 09:54:17;;;;;;;4.23;3.50;;;23.60;98.20;;;;;;5042921;28;21136;-69
2023/06/05 09:56:49;;;;;;;3.83;3.53;;;23.50;98.10;;;;;;5029119;28;20460;-69
2023/06/05 09:59:21;;;;;;;4.30;3.60;;;23.50;98.00;;;;;;5028961;28;20507;-69
2023/06/05 10:01:51;;;;;;;3.80;3.50;;;23.50;98.40;;;;;;5039918;28;20472;-69
2023/06/05 10:04:23;;;;;;;4.00;3.43;;;23.80;99.40;;;;;;5049007;28;20473;-69
2023/06/05 10:06:52;;;;;;;4.10;3.67;;;24.00;99.20;;;;;;5038524;28;20470;-69
2023/06/05 10:09:20;;;;;;;3.83;3.30;;;24.20;99.30;;;;;;5035949;28;20466;-69
2023/06/05 10:11:50;;;;;;;3.83;3.43;;;24.40;98.10;;;;;;5048916;28;21027;-69
2023/06/05 10:14:19;;;;;;;5.13;3.57;;;24.60;97.90;;;;;;5043016;28;20462;-69
2023/06/05 10:16:50;;;;;;;4.93;3.77;;;24.70;97.40;;;;;;5029694;28;20459;-69
2023/06/05 10:19:20;;;;;;;3.17;2.87;;;24.90;98.90;;;;;;5029086;28;20932;-69
2023/06/05 10:21:50;;;;;;;3.23;2.90;;;25.10;98.20;;;;;;5028816;28;20476;-69
2023/06/05 10:24:24;;;;;;;3.87;3.47;;;25.30;98.10;;;;;;5029418;28;20465;-69
2023/06/05 10:27:30;;;;;;;3.20;2.90;;;25.30;97.20;;;;;;5042774;28;20551;-69
2023/06/05 10:30:43;;;;;;;3.47;3.17;;;25.40;97.80;;;;;;5037125;28;20458;-69
2023/06/05 10:33:26;;;;;;;4.20;3.30;;;25.40;96.90;;;;;;5044402;28;20471;-69
2023/06/05 10:36:01;;;;;;;3.90;3.60;;;25.30;96.30;;;;;;5033620;28;20465;-69
2023/06/05 10:38:30;;;;;;;4.40;4.00;;;25.20;97.10;;;;;;5041988;28;20541;-69
2023/06/05 10:40:59;;;;;;;3.67;3.33;;;25.00;97.10;;;;;;5041198;28;20471;-69
2023/06/05 10:43:28;;;;;;;4.17;3.83;;;24.70;97.40;;;;;;5048932;28;20821;-69
2023/06/05 10:45:56;;;;;;;3.83;3.53;;;24.80;97.00;;;;;;5044407;28;20470;-69
2023/06/05 10:48:49;;;;;;;4.13;3.73;;;25.00;97.10;;;;;;5044732;28;20490;-69
2023/06/05 10:51:39;;;;;;;3.80;3.50;;;25.00;95.00;;;;;;5027052;28;20829;-69
2023/06/05 10:54:08;;;;;;;3.80;3.47;;;24.60;95.00;;;;;;5026105;28;20484;-69
2023/06/05 10:57:01;;;;;;;4.30;3.70;;;24.50;96.30;;;;;;5040792;28;20525;-69
2023/06/05 10:59:29;;;;;;;3.17;2.93;;;24.60;95.60;;;;;;5048719;28;20469;-68
2023/06/05 11:02:26;;;;;;;4.50;3.90;;;24.80;93.40;;;;;;5032771;28;20470;-69
2023/06/05 11:05:07;;;;;;;3.53;3.20;;;24.80;94.10;;;;;;5040975;28;20463;-69
2023/06/05 11:07:33;;;;;;;3.90;3.43;;;25.00;94.70;;;;;;5032528;28;20645;-69
2023/06/05 11:10:25;;;;;;;3.77;3.40;;;25.20;95.50;;;;;;5035907;28;20976;-69
2023/06/05 11:12:59;;;;;;;3.33;3.03;;;25.40;92.80;;;;;;5021652;28;20483;-69
2023/06/05 11:15:40;;;;;;;3.57;3.27;;;25.60;93.60;;;;;;5048035;28;20473;-69
2023/06/05 11:18:28;;;;;;;3.60;3.20;;;25.90;94.70;;;;;;5031492;28;20487;-69
2023/06/05 11:20:55;;;;;;;3.90;3.37;;;26.00;91.40;;;;;;5036492;28;20475;-69
2023/06/05 11:23:27;;;;;;;3.80;3.10;;;26.00;92.50;;;;;;5040689;28;20455;-69
2023/06/05 11:25:59;;;;;;;3.93;3.57;;;26.00;92.50;;;;;;5050823;28;20559;-69
2023/06/05 11:28:39;;;;;;;3.90;3.50;;;26.00;92.80;;;;;;5044797;28;20523;-69
2023/06/05 11:31:06;;;;;;;4.00;3.17;;;26.10;94.00;;;;;;5039681;28;20515;-69
2023/06/05 11:33:33;;;;;;;3.17;2.87;;;26.20;93.10;;;;;;5040007;28;20481;-69
2023/06/05 11:36:01;;;;;;;3.43;3.13;;;26.30;92.70;;;;;;5035716;28;20848;-69
2023/06/05 11:38:28;;;;;;;3.60;3.30;;;26.40;93.60;;;;;;5051919;28;20495;-69
2023/06/05 11:40:57;;;;;;;3.20;2.90;;;26.50;94.40;;;;;;5048637;28;20483;-69
2023/06/05 11:43:23;;;;;;;3.30;3.00;;;26.60;92.60;;;;;;5047092;28;20468;-69
2023/06/05 11:45:52;;;;;;;4.17;3.07;;;26.60;92.20;;;;;;5041313;28;20489;-69
2023/06/05 11:48:18;;;;;;;3.83;3.13;;;26.50;91.10;;;;;;5045525;28;20483;-69
2023/06/05 11:50:54;;;;;;;3.30;3.00;;;26.40;91.10;;;;;;5043006;28;20463;-69
2023/06/05 11:53:22;;;;;;;3.20;2.90;;;26.50;89.80;;;;;;5045107;28;20514;-69
2023/06/05 11:56:05;;;;;;;3.30;3.00;;;26.50;92.30;;;;;;5032854;28;20469;-69
2023/06/05 11:58:37;;;;;;;3.50;3.20;;;26.70;90.80;;;;;;5029859;28;20483;-69
2023/06/05 12:01:12;;;;;;;3.33;2.90;;;26.70;92.50;;;;;;5038450;28;20469;-69
2023/06/05 12:03:39;;;;;;;3.83;3.47;;;26.70;90.60;;;;;;5030419;28;21021;-69
2023/06/05 12:06:06;;;;;;;4.20;3.10;;;26.70;91.80;;;;;;5039025;28;20458;-69
2023/06/05 12:08:35;;;;;;;2.63;2.43;;;26.90;90.70;;;;;;5039021;28;20491;-69
2023/06/05 12:11:03;;;;;;;4.07;3.03;;;27.00;91.50;;;;;;5037690;28;20461;-69
2023/06/05 12:13:51;;;;;;;4.13;3.73;;;27.10;89.20;;;;;;5039065;28;21000;-69
2023/06/05 12:16:18;;;;;;;3.40;2.83;;;27.00;90.20;;;;;;5030170;28;20486;-69
2023/06/05 12:18:45;;;;;;;3.27;2.97;;;27.10;91.20;;;;;;5039237;28;20869;-69
2023/06/05 12:21:23;;;;;;;3.10;2.80;;;27.10;91.60;;;;;;5036534;28;20478;-69
2023/06/05 12:23:49;;;;;;;3.40;3.10;;;27.20;90.90;;;;;;5046732;28;20463;-69
2023/06/05 12:26:17;;;;;;;4.03;3.17;;;27.00;89.90;;;;;;5038213;28;20461;-69
2023/06/05 12:28:46;;;;;;;4.00;2.90;;;26.60;86.40;;;;;;5046574;28;20541;-69
2023/06/05 12:31:34;;;;;;;3.63;3.20;;;26.50;91.00;;;;;;5042641;28;20841;-69
2023/06/05 12:34:01;;;;;;;4.97;3.07;;;26.60;90.90;;;;;;5041069;28;20948;-69
2023/06/05 12:36:28;;;;;;;3.63;3.30;;;26.80;89.90;;;;;;5042047;28;20473;-69
2023/06/05 12:38:55;;;;;;;3.27;2.97;;;27.00;88.50;;;;;;5033149;28;20483;-69
2023/06/05 12:41:22;;;;;;;3.93;3.27;;;27.10;91.50;;;;;;5040982;28;20465;-69
2023/06/05 12:44:00;;;;;;;3.20;2.90;;;27.20;90.00;;;;;;5040007;28;20474;-69
2023/06/05 12:46:28;;;;;;;3.63;2.90;;;27.30;90.20;;;;;;5037854;28;20504;-69
2023/06/05 12:48:57;;;;;;;3.33;3.03;;;27.20;90.00;;;;;;5036386;28;20609;-69
2023/06/05 12:51:24;;;;;;;4.20;3.33;;;26.90;86.50;;;;;;5029419;28;20474;-69
2023/06/05 12:53:51;;;;;;;3.60;3.20;;;26.80;91.00;;;;;;5029122;28;20482;-69
2023/06/05 12:56:17;;;;;;;3.87;3.23;;;26.90;87.60;;;;;;5034009;28;20473;-69
2023/06/05 12:58:44;;;;;;;3.50;3.17;;;27.00;90.00;;;;;;5048600;28;20486;-69